createdAt,value
2022-08-08T07:19:34.406Z,27.80
2022-08-08T07:22:12.077Z,26.90
2022-08-08T07:24:53.896Z,26.90
2022-08-08T07:27:35.459Z,27.00
2022-08-08T07:30:21.304Z,27.00
2022-08-08T07:32:54.820Z,27.10
2022-08-08T07:35:29.083Z,27.20
2022-08-08T07:38:09.757Z,27.20
2022-08-08T07:40:47.194Z,27.30
2022-08-08T07:43:16.856Z,27.40
2022-08-08T07:46:18.409Z,27.50
2022-08-08T07:48:49.222Z,27.50
2022-08-08T07:51:23.135Z,27.60
2022-08-08T07:54:24.062Z,27.60
2022-08-08T07:57:09.126Z,27.70
2022-08-08T07:59:54.579Z,27.70
2022-08-08T08:02:34.864Z,27.80
2022-08-08T08:05:15.414Z,27.80
2022-08-08T08:07:45.951Z,27.80
2022-08-08T08:10:30.372Z,27.90
2022-08-08T08:13:25.631Z,27.90
2022-08-08T08:16:13.200Z,28.00
2022-08-08T08:18:52.119Z,28.20
2022-08-08T08:21:35.461Z,28.20
2022-08-08T08:24:18.729Z,28.30
2022-08-08T08:26:52.960Z,28.40
2022-08-08T08:29:24.164Z,28.40
2022-08-08T08:31:58.363Z,28.50
2022-08-08T08:34:33.522Z,28.50
2022-08-08T08:37:08.108Z,28.60
2022-08-08T08:39:59.720Z,28.70
2022-08-08T08:42:29.019Z,28.70
2022-08-08T08:45:20.668Z,28.70
2022-08-08T08:47:53.259Z,28.80
2022-08-08T08:50:32.411Z,28.90
2022-08-08T08:53:27.873Z,28.90
2022-08-08T08:56:01.203Z,29.00
2022-08-08T08:58:37.946Z,29.00
2022-08-08T09:01:09.726Z,29.10
2022-08-08T09:03:46.675Z,29.20
2022-08-08T09:06:28.663Z,29.20
2022-08-08T09:09:26.111Z,29.20
2022-08-08T09:12:06.044Z,29.30
2022-08-08T09:14:42.272Z,29.30
2022-08-08T09:17:18.253Z,29.40
2022-08-08T09:21:57.058Z,29.40
2022-08-08T09:22:39.434Z,29.40
2022-08-08T09:25:10.563Z,29.50
2022-08-08T09:27:56.236Z,29.70
2022-08-08T09:30:29.862Z,29.60
2022-08-08T09:33:12.663Z,29.60
2022-08-08T09:35:51.408Z,29.70
2022-08-08T09:38:53.244Z,29.80
2022-08-08T09:41:55.073Z,29.80
2022-08-08T09:44:34.321Z,29.80
2022-08-08T09:48:02.444Z,29.90
2022-08-08T09:50:01.396Z,29.90
2022-08-08T09:52:56.268Z,30.00
2022-08-08T09:55:51.873Z,30.00
2022-08-08T09:58:25.748Z,30.00
2022-08-08T10:00:59.006Z,30.00
2022-08-08T10:03:33.853Z,30.00
2022-08-08T10:06:17.908Z,30.00
2022-08-08T10:08:47.329Z,30.00
2022-08-08T10:12:26.406Z,30.10
2022-08-08T10:14:10.833Z,30.10
2022-08-08T10:16:59.384Z,30.10
2022-08-08T10:19:57.407Z,30.20
2022-08-08T10:22:28.282Z,30.20
2022-08-08T10:25:05.702Z,30.10
2022-08-08T10:27:43.105Z,30.10
2022-08-08T10:30:16.208Z,30.10
2022-08-08T10:33:02.125Z,30.10
2022-08-08T10:36:08.219Z,30.10
2022-08-08T10:38:24.966Z,30.20
2022-08-08T10:40:55.095Z,30.20
2022-08-08T10:43:27.253Z,30.20
2022-08-08T10:46:03.461Z,30.10
2022-08-08T10:48:56.885Z,30.10
2022-08-08T10:51:31.661Z,30.10
2022-08-08T10:54:25.418Z,30.00
2022-08-08T10:56:58.938Z,30.00
2022-08-08T10:59:31.131Z,30.00
2022-08-08T11:02:02.990Z,29.90
2022-08-08T11:04:39.265Z,29.90
2022-08-08T11:07:15.002Z,29.90
2022-08-08T11:09:57.662Z,29.90
2022-08-08T11:12:28.785Z,29.80
2022-08-08T11:14:59.963Z,29.80
2022-08-08T11:18:01.051Z,29.80
2022-08-08T11:20:27.345Z,29.70
2022-08-08T11:22:59.990Z,29.70
2022-08-08T11:25:51.736Z,29.70
2022-08-08T11:28:29.760Z,29.70
2022-08-08T11:31:03.945Z,29.70
2022-08-08T11:33:51.966Z,29.70
2022-08-08T11:36:29.195Z,29.70
2022-08-08T11:38:59.479Z,29.70
2022-08-08T11:41:32.381Z,29.70
2022-08-08T11:44:06.181Z,29.70
2022-08-08T11:46:37.527Z,29.60
2022-08-08T11:49:11.478Z,29.60
2022-08-08T11:51:50.708Z,29.60
2022-08-08T11:54:33.557Z,29.60
2022-08-08T11:57:14.429Z,29.60
2022-08-08T12:00:00.649Z,29.70
2022-08-08T12:02:33.759Z,29.60
2022-08-08T12:05:07.523Z,29.70
2022-08-08T12:07:50.934Z,29.70
2022-08-08T12:10:22.758Z,29.70
2022-08-08T12:13:03.065Z,29.70
2022-08-08T12:15:43.000Z,29.70
2022-08-08T12:18:24.538Z,29.70
2022-08-08T12:20:55.238Z,29.70
2022-08-08T12:23:43.861Z,29.70
2022-08-08T12:26:38.353Z,29.80
2022-08-08T12:29:40.420Z,29.80
2022-08-08T12:32:17.255Z,29.80
2022-08-08T12:34:55.319Z,29.80
2022-08-08T12:37:40.092Z,29.80
2022-08-08T12:40:23.007Z,29.80
2022-08-08T12:42:55.759Z,29.80
2022-08-08T12:45:59.326Z,29.80
2022-08-08T12:48:36.892Z,29.70
2022-08-08T12:51:11.642Z,29.70
2022-08-08T12:53:58.608Z,29.70
2022-08-08T12:56:34.751Z,29.80
2022-08-08T12:59:16.145Z,29.80
2022-08-08T13:01:52.728Z,29.80
2022-08-08T13:04:26.013Z,29.90
2022-08-08T13:07:00.844Z,29.90
2022-08-08T13:09:34.107Z,30.00
2022-08-08T13:12:37.661Z,30.00
2022-08-08T13:15:13.666Z,30.10
2022-08-08T13:17:54.108Z,30.20
2022-08-08T13:20:32.101Z,30.20
2022-08-08T13:23:35.256Z,30.20
2022-08-08T13:25:59.391Z,30.20
2022-08-08T13:28:32.768Z,30.30
2022-08-08T13:31:05.329Z,30.30
2022-08-08T13:33:42.259Z,30.20
2022-08-08T13:36:11.998Z,30.20
2022-08-08T13:38:40.900Z,30.40
2022-08-08T13:41:16.635Z,30.30
2022-08-08T13:43:47.166Z,30.30
2022-08-08T13:46:27.295Z,30.40
2022-08-08T13:49:11.720Z,30.40
2022-08-08T13:52:00.874Z,30.30
2022-08-08T13:54:31.644Z,30.30
2022-08-08T13:57:01.911Z,30.30
2022-08-08T13:59:32.630Z,30.30
2022-08-08T14:02:15.124Z,30.30
2022-08-08T14:04:57.667Z,30.30
2022-08-08T14:07:42.383Z,30.30
2022-08-08T14:10:17.168Z,30.30
2022-08-08T14:12:49.638Z,30.30
2022-08-08T14:15:31.254Z,30.30
2022-08-08T14:18:36.139Z,30.20
2022-08-08T14:21:07.928Z,30.30
2022-08-08T14:24:04.401Z,30.30
2022-08-08T14:26:34.858Z,30.20
2022-08-08T14:29:06.140Z,30.20
2022-08-08T14:32:09.311Z,30.20
2022-08-08T14:34:39.966Z,30.20
2022-08-08T14:37:12.913Z,30.20
2022-08-08T14:39:47.554Z,30.30
2022-08-08T14:42:17.560Z,30.30
2022-08-08T14:45:00.302Z,30.30
2022-08-08T14:47:36.160Z,30.30
2022-08-08T14:50:15.040Z,30.30
2022-08-08T14:55:47.315Z,30.40
2022-08-08T14:58:30.435Z,30.40
2022-08-08T15:00:58.739Z,30.40
2022-08-08T15:03:27.117Z,30.40
2022-08-08T15:06:05.206Z,30.30
2022-08-08T15:08:38.512Z,30.40
2022-08-08T15:11:21.551Z,30.40
2022-08-08T15:14:01.718Z,30.40
2022-08-08T15:16:34.353Z,30.50
2022-08-08T15:19:04.345Z,30.50
2022-08-08T15:21:34.507Z,30.50
2022-08-08T15:24:12.844Z,30.60
2022-08-08T15:26:46.653Z,30.50
2022-08-08T15:29:22.450Z,30.60
2022-08-08T15:32:18.077Z,30.50
2022-08-08T15:34:41.408Z,30.50
2022-08-08T15:37:13.057Z,30.50
2022-08-08T15:39:41.573Z,30.50
2022-08-08T15:42:17.823Z,30.60
2022-08-08T15:44:59.139Z,30.50
2022-08-08T15:47:27.348Z,30.60
2022-08-08T15:49:56.067Z,30.60
2022-08-08T15:52:25.884Z,30.60
2022-08-08T15:54:55.331Z,30.50
2022-08-08T15:57:24.311Z,30.50
2022-08-08T16:00:06.511Z,30.50
2022-08-08T16:02:44.631Z,30.50
2022-08-08T16:05:20.661Z,30.40
2022-08-08T16:07:53.941Z,30.40
2022-08-08T16:13:12.068Z,30.40
2022-08-08T16:13:34.804Z,30.40
2022-08-08T16:16:12.873Z,30.40
2022-08-08T16:18:53.439Z,30.30
2022-08-08T16:21:30.201Z,30.40
2022-08-08T16:24:01.482Z,30.40
2022-08-08T16:26:34.107Z,30.40
2022-08-08T16:29:07.774Z,30.40
2022-08-08T16:31:40.467Z,30.40
2022-08-08T16:34:09.025Z,30.40
2022-08-08T16:36:38.141Z,30.30
2022-08-08T16:39:27.840Z,30.30
2022-08-08T16:42:01.097Z,30.30
2022-08-08T16:44:34.379Z,30.30
2022-08-08T16:47:40.548Z,30.30
2022-08-08T16:50:14.830Z,30.30
2022-08-08T16:55:00.525Z,30.20
2022-08-08T16:55:54.376Z,30.20
2022-08-08T16:58:25.626Z,30.20
2022-08-08T17:00:55.366Z,30.30
2022-08-08T17:03:58.621Z,30.20
2022-08-08T17:06:36.421Z,30.20
2022-08-08T17:09:04.944Z,30.20
2022-08-08T17:11:39.384Z,30.10
2022-08-08T17:14:18.631Z,30.10
2022-08-08T17:16:51.933Z,30.10
2022-08-08T17:19:26.818Z,30.10
2022-08-08T17:21:56.011Z,30.10
2022-08-08T17:24:27.043Z,30.10
2022-08-08T17:27:04.707Z,30.00
2022-08-08T17:29:34.364Z,30.00
2022-08-08T17:32:07.837Z,30.10
2022-08-08T17:35:00.040Z,30.00
2022-08-08T17:37:27.612Z,30.00
2022-08-08T17:40:10.823Z,29.90
2022-08-08T17:42:47.124Z,29.90
2022-08-08T17:45:23.508Z,29.90
2022-08-08T17:47:54.116Z,29.80
2022-08-08T17:50:23.981Z,29.70
2022-08-08T17:52:52.813Z,29.70
2022-08-08T17:56:05.410Z,29.70
2022-08-08T17:58:22.467Z,29.70
2022-08-08T18:00:57.193Z,29.70
2022-08-08T18:03:25.827Z,29.60
2022-08-08T18:05:54.188Z,29.60
2022-08-08T18:08:37.585Z,29.50
2022-08-08T18:11:15.290Z,29.50
2022-08-08T18:13:48.897Z,29.40
2022-08-08T18:16:23.085Z,29.40
2022-08-08T18:18:56.663Z,29.30
2022-08-08T18:22:00.548Z,29.30
2022-08-08T18:24:18.784Z,29.20
2022-08-08T18:26:53.857Z,29.20
2022-08-08T18:29:30.048Z,29.20
2022-08-08T18:32:04.059Z,29.10
2022-08-08T18:34:33.620Z,29.10
2022-08-08T18:37:08.604Z,29.10
2022-08-08T18:39:41.259Z,29.00
2022-08-08T18:42:15.831Z,29.00
2022-08-08T18:44:55.178Z,29.00
2022-08-08T18:47:25.173Z,28.90
2022-08-08T18:49:58.475Z,28.90
2022-08-08T18:52:29.913Z,28.90
2022-08-08T18:55:09.501Z,28.80
2022-08-08T18:57:40.988Z,28.80
2022-08-08T19:00:16.642Z,28.80
2022-08-08T19:02:55.245Z,28.80
2022-08-08T19:05:32.470Z,28.80
2022-08-08T19:08:25.175Z,28.70
2022-08-08T19:10:58.563Z,28.70
2022-08-08T19:13:38.536Z,28.60
2022-08-08T19:16:18.938Z,28.60
2022-08-08T19:18:53.267Z,28.60
2022-08-08T19:21:33.669Z,28.60
2022-08-08T19:24:49.109Z,28.50
2022-08-08T19:27:07.838Z,28.50
2022-08-08T19:29:40.733Z,28.50
2022-08-08T19:32:13.284Z,28.40
2022-08-08T19:34:51.463Z,28.40
2022-08-08T19:37:43.515Z,28.40
2022-08-08T19:40:14.629Z,28.40
2022-08-08T19:42:44.855Z,28.30
2022-08-08T19:45:14.225Z,28.30
2022-08-08T19:48:03.422Z,28.30
2022-08-08T19:50:33.131Z,28.20
2022-08-08T19:53:01.389Z,28.20
2022-08-08T19:55:33.996Z,28.10
2022-08-08T19:58:04.090Z,28.10
2022-08-08T20:00:37.292Z,28.00
2022-08-08T20:03:14.513Z,28.00
2022-08-08T20:06:15.243Z,28.00
2022-08-08T20:08:48.023Z,27.90
2022-08-08T20:11:16.769Z,27.90
2022-08-08T20:14:32.760Z,27.90
2022-08-08T20:16:37.590Z,27.80
2022-08-08T20:19:10.901Z,27.80
2022-08-08T20:21:41.536Z,27.70
2022-08-08T20:24:10.718Z,27.70
2022-08-08T20:26:49.187Z,27.70
2022-08-08T20:29:18.268Z,27.70
2022-08-08T20:32:08.066Z,27.60
2022-08-08T20:34:38.009Z,27.60
2022-08-08T20:37:15.913Z,27.60
2022-08-08T20:39:51.236Z,27.50
2022-08-08T20:42:28.473Z,27.50
2022-08-08T20:44:58.864Z,27.50
2022-08-08T20:47:28.846Z,27.50
2022-08-08T20:50:10.015Z,27.40
2022-08-08T20:52:39.393Z,27.40
2022-08-08T20:55:22.749Z,27.40
2022-08-08T20:57:58.085Z,27.40
2022-08-08T21:00:27.031Z,27.40
2022-08-08T21:02:55.672Z,27.30
2022-08-08T21:05:31.793Z,27.30
2022-08-08T21:08:36.834Z,27.30
2022-08-08T21:10:50.400Z,27.30
2022-08-08T21:13:18.768Z,27.30
2022-08-08T21:16:05.717Z,27.20
2022-08-08T21:18:35.913Z,27.30
2022-08-08T21:21:20.629Z,27.30
2022-08-08T21:24:19.215Z,27.20
2022-08-08T21:26:54.462Z,27.20
2022-08-08T21:30:05.630Z,27.20
2022-08-08T21:32:19.270Z,27.20
2022-08-08T21:34:56.548Z,27.20
2022-08-08T21:37:54.377Z,27.20
2022-08-08T21:40:30.842Z,27.20
2022-08-08T21:43:00.090Z,27.20
2022-08-08T21:48:00.556Z,27.20
2022-08-08T21:48:21.736Z,27.20
2022-08-08T21:51:00.287Z,27.20
2022-08-08T21:54:22.739Z,27.10
2022-08-08T21:56:34.126Z,27.10
